createdAt,value
2018-08-24T00:02:21.333Z,17.87
2018-08-24T00:04:49.450Z,18.55
2018-08-24T00:07:17.577Z,20.85
2018-08-24T00:09:47.111Z,15.58
2018-08-24T00:12:15.213Z,17.10
2018-08-24T00:14:43.286Z,16.85
2018-08-24T00:17:16.744Z,17.42
2018-08-24T00:19:44.810Z,17.35
2018-08-24T00:22:12.884Z,17.73
2018-08-24T00:24:40.962Z,19.35
2018-08-24T00:27:09.037Z,17.35
2018-08-24T00:29:37.091Z,16.32
2018-08-24T00:32:05.191Z,16.70
2018-08-24T00:34:33.317Z,16.48
2018-08-24T00:37:01.425Z,17.65
2018-08-24T00:39:29.548Z,15.45
2018-08-24T00:41:57.673Z,15.25
2018-08-24T00:44:25.745Z,16.25
2018-08-24T00:46:53.813Z,15.88
2018-08-24T00:49:21.980Z,16.15
2018-08-24T00:51:50.060Z,15.70
2018-08-24T00:54:18.214Z,14.00
2018-08-24T00:56:46.277Z,14.50
2018-08-24T00:59:14.363Z,14.43
2018-08-24T01:01:42.435Z,13.35
2018-08-24T01:04:10.513Z,13.25
2018-08-24T01:06:38.595Z,11.53
2018-08-24T01:09:08.740Z,13.10
2018-08-24T01:11:42.334Z,10.60
2018-08-24T01:14:10.424Z,10.93
2018-08-24T01:16:43.759Z,10.98
2018-08-24T01:19:11.889Z,10.05
2018-08-24T01:21:39.979Z,10.40
2018-08-24T01:24:08.071Z,9.88
2018-08-24T01:26:36.176Z,11.40
2018-08-24T01:31:38.533Z,9.58
2018-08-24T01:34:06.624Z,9.93
2018-08-24T01:36:34.683Z,8.93
2018-08-24T01:39:02.769Z,8.45
2018-08-24T01:41:30.877Z,7.03
2018-08-24T01:43:58.952Z,7.20
2018-08-24T01:46:27.053Z,5.70
2018-08-24T01:48:55.096Z,5.08
2018-08-24T01:51:23.164Z,5.10
2018-08-24T01:53:51.251Z,6.03
2018-08-24T01:56:19.308Z,3.60
2018-08-24T01:58:47.383Z,4.83
2018-08-24T02:01:15.436Z,3.55
2018-08-24T02:03:43.508Z,3.60
2018-08-24T02:06:11.560Z,2.98
2018-08-24T02:08:39.675Z,3.45
2018-08-24T02:11:39.231Z,3.25
2018-08-24T02:14:10.965Z,2.30
2018-08-24T02:16:40.367Z,3.17
2018-08-24T02:19:10.952Z,4.40
2018-08-24T02:21:44.276Z,2.60
2018-08-24T02:24:13.052Z,2.42
2018-08-24T02:26:41.807Z,2.90
2018-08-24T02:29:09.889Z,2.33
2018-08-24T02:31:43.276Z,2.37
2018-08-24T02:34:11.379Z,2.17
2018-08-24T02:36:39.426Z,2.40
2018-08-24T02:39:09.936Z,2.33
2018-08-24T02:41:37.991Z,2.62
2018-08-24T02:44:06.301Z,2.50
2018-08-24T02:46:34.379Z,2.22
2018-08-24T02:49:02.495Z,2.55
2018-08-24T02:51:30.603Z,2.40
2018-08-24T02:53:59.079Z,2.77
2018-08-24T02:56:27.127Z,3.60
2018-08-24T02:58:55.195Z,3.67
2018-08-24T03:01:23.291Z,3.55
2018-08-24T03:03:51.358Z,4.03
2018-08-24T03:06:19.405Z,3.70
2018-08-24T03:08:47.498Z,4.03
2018-08-24T03:11:15.605Z,4.42
2018-08-24T03:13:43.676Z,4.30
2018-08-24T03:16:11.803Z,4.15
2018-08-24T03:18:39.873Z,4.30
2018-08-24T03:21:07.963Z,4.50
2018-08-24T03:23:36.037Z,5.28
2018-08-24T03:26:04.096Z,4.50
2018-08-24T03:28:32.169Z,4.90
2018-08-24T03:31:00.267Z,4.20
2018-08-24T03:33:28.321Z,5.30
2018-08-24T03:35:56.397Z,4.58
2018-08-24T03:38:24.439Z,5.15
2018-08-24T03:40:52.592Z,4.65
2018-08-24T03:43:20.652Z,5.62
2018-08-24T03:45:48.786Z,5.17
2018-08-24T03:48:16.777Z,5.80
2018-08-24T03:50:44.865Z,4.10
2018-08-24T03:53:12.986Z,4.25
2018-08-24T03:55:41.013Z,4.65
2018-08-24T03:58:09.171Z,4.53
2018-08-24T04:00:37.248Z,4.50
2018-08-24T04:03:05.317Z,4.33
2018-08-24T04:05:33.400Z,4.75
2018-08-24T04:08:01.479Z,4.42
2018-08-24T04:10:29.554Z,4.40
2018-08-24T04:12:58.125Z,4.50
2018-08-24T04:15:26.140Z,4.60
2018-08-24T04:17:54.190Z,4.15
2018-08-24T04:20:22.251Z,5.55
2018-08-24T04:22:50.328Z,4.60
2018-08-24T04:25:18.406Z,4.40
2018-08-24T04:27:46.499Z,4.53
2018-08-24T04:30:14.551Z,4.80
2018-08-24T04:32:42.636Z,4.15
2018-08-24T04:35:10.712Z,6.07
2018-08-24T04:37:38.805Z,7.97
2018-08-24T04:40:06.911Z,8.83
2018-08-24T04:42:35.316Z,6.05
2018-08-24T04:45:03.408Z,6.45
2018-08-24T04:47:31.515Z,4.65
2018-08-24T04:49:59.573Z,5.25
2018-08-24T04:52:27.697Z,5.42
2018-08-24T04:54:55.812Z,5.58
2018-08-24T04:57:23.879Z,4.97
2018-08-24T04:59:51.940Z,4.95
2018-08-24T05:02:20.053Z,5.12
2018-08-24T05:04:48.148Z,6.60
2018-08-24T05:07:16.223Z,5.45
2018-08-24T05:09:44.305Z,5.50
2018-08-24T05:12:12.408Z,7.35
2018-08-24T05:14:40.506Z,5.92
2018-08-24T05:17:08.648Z,5.80
2018-08-24T05:19:36.716Z,6.90
2018-08-24T05:22:04.789Z,5.92
2018-08-24T05:24:32.936Z,5.80
2018-08-24T05:27:01.080Z,8.90
2018-08-24T05:29:29.348Z,5.72
2018-08-24T05:31:57.471Z,5.75
2018-08-24T05:34:25.533Z,5.45
2018-08-24T05:36:53.745Z,6.62
2018-08-24T05:39:21.832Z,5.60
2018-08-24T05:41:49.892Z,5.12
2018-08-24T05:44:17.954Z,6.65
2018-08-24T05:46:46.089Z,6.08
2018-08-24T05:49:14.176Z,6.85
2018-08-24T05:51:42.271Z,5.85
2018-08-24T05:54:10.344Z,7.33
2018-08-24T05:56:38.411Z,5.92
2018-08-24T05:59:06.524Z,6.17
2018-08-24T06:01:34.619Z,6.30
2018-08-24T06:04:02.725Z,6.50
2018-08-24T06:06:30.799Z,6.62
2018-08-24T06:09:04.192Z,6.80
2018-08-24T06:11:32.331Z,6.97
2018-08-24T06:14:00.465Z,6.70
2018-08-24T06:16:28.676Z,6.28
2018-08-24T06:18:57.394Z,7.72
2018-08-24T06:21:25.472Z,6.45
2018-08-24T06:23:53.604Z,7.12
2018-08-24T06:26:21.679Z,6.87
2018-08-24T06:28:49.736Z,7.22
2018-08-24T06:31:17.787Z,7.35
2018-08-24T06:33:45.860Z,8.28
2018-08-24T06:36:13.930Z,8.60
2018-08-24T06:38:42.028Z,9.75
2018-08-24T06:41:10.129Z,9.68
2018-08-24T06:43:38.220Z,14.13
2018-08-24T06:46:06.328Z,12.88
2018-08-24T06:48:34.505Z,12.23
2018-08-24T06:51:02.617Z,11.28
2018-08-24T06:53:30.774Z,10.30
2018-08-24T06:55:58.889Z,12.18
2018-08-24T06:58:27.003Z,12.10
2018-08-24T07:00:55.051Z,12.70
2018-08-24T07:03:23.165Z,13.50
2018-08-24T07:05:51.265Z,15.23
2018-08-24T07:08:20.416Z,15.15
2018-08-24T07:10:48.529Z,18.75
2018-08-24T07:13:16.639Z,16.77
2018-08-24T07:15:44.721Z,17.75
2018-08-24T07:18:12.819Z,16.93
2018-08-24T07:20:40.936Z,16.15
2018-08-24T07:23:09.003Z,19.37
2018-08-24T07:25:37.135Z,21.40
2018-08-24T07:28:05.230Z,23.35
2018-08-24T07:30:33.345Z,25.35
2018-08-24T07:33:01.427Z,26.30
2018-08-24T07:35:29.518Z,23.67
2018-08-24T07:37:57.616Z,25.50
2018-08-24T07:40:25.712Z,27.58
2018-08-24T07:42:53.776Z,26.07
2018-08-24T07:45:21.848Z,26.62
2018-08-24T07:47:49.938Z,28.40
2018-08-24T07:50:18.024Z,27.48
2018-08-24T07:52:46.121Z,29.90
2018-08-24T07:55:14.191Z,28.47
2018-08-24T07:57:42.268Z,30.15
2018-08-24T08:00:10.363Z,31.02
2018-08-24T08:02:43.868Z,28.95
2018-08-24T08:05:11.972Z,30.37
2018-08-24T08:07:40.057Z,36.00
2018-08-24T08:10:08.458Z,31.77
2018-08-24T08:12:36.669Z,28.50
2018-08-24T08:15:07.476Z,29.63
2018-08-24T08:17:35.996Z,31.62
2018-08-24T08:20:04.720Z,29.90
2018-08-24T08:22:32.848Z,28.40
2018-08-24T08:25:01.042Z,27.15
2018-08-24T08:27:29.433Z,28.00
2018-08-24T08:29:58.565Z,26.35
2018-08-24T08:32:27.112Z,26.40
2018-08-24T08:34:55.271Z,27.45
2018-08-24T08:37:23.900Z,26.62
2018-08-24T08:39:52.513Z,27.42
2018-08-24T08:42:20.982Z,26.93
2018-08-24T08:44:49.107Z,27.00
2018-08-24T08:47:17.177Z,24.77
2018-08-24T08:49:45.328Z,23.70
2018-08-24T08:52:14.640Z,23.07
2018-08-24T08:54:43.467Z,24.20
2018-08-24T08:57:11.676Z,23.95
2018-08-24T08:59:39.770Z,23.80
2018-08-24T09:02:09.659Z,24.15
2018-08-24T09:04:38.343Z,23.50
2018-08-24T09:07:06.668Z,22.22
2018-08-24T09:09:34.767Z,23.07
2018-08-24T09:12:02.908Z,21.07
2018-08-24T09:14:31.083Z,21.80
2018-08-24T09:16:59.338Z,21.73
2018-08-24T09:19:33.378Z,20.85
2018-08-24T09:22:07.002Z,19.07
2018-08-24T09:24:40.382Z,15.98
2018-08-24T09:27:13.749Z,16.73
2018-08-24T09:29:41.889Z,19.37
2018-08-24T09:32:10.249Z,13.13
2018-08-24T09:34:38.404Z,14.73
2018-08-24T09:37:10.668Z,15.63
2018-08-24T09:39:45.793Z,21.68
2018-08-24T09:42:14.392Z,14.35
2018-08-24T09:44:42.587Z,12.50
2018-08-24T09:47:16.162Z,12.37
2018-08-24T09:49:44.431Z,12.07
2018-08-24T09:52:18.055Z,12.45
2018-08-24T09:54:46.283Z,9.98
2018-08-24T09:57:14.342Z,11.53
2018-08-24T09:59:43.483Z,9.03
2018-08-24T10:02:16.925Z,7.70
2018-08-24T10:04:50.650Z,7.30
2018-08-24T10:07:25.080Z,10.32
2018-08-24T10:09:53.248Z,6.28
2018-08-24T10:12:21.570Z,8.18
2018-08-24T10:14:49.881Z,6.67
2018-08-24T10:17:17.966Z,7.45
2018-08-24T10:19:46.171Z,9.08
2018-08-24T10:22:14.281Z,5.65
2018-08-24T10:24:42.398Z,6.20
2018-08-24T10:27:10.588Z,11.75
2018-08-24T10:29:38.727Z,7.87
2018-08-24T10:32:06.795Z,7.30
2018-08-24T10:34:34.952Z,7.92
2018-08-24T10:37:03.231Z,3.77
2018-08-24T10:39:31.332Z,5.87
2018-08-24T10:41:59.516Z,7.20
2018-08-24T10:44:27.660Z,7.47
2018-08-24T10:46:55.774Z,6.22
2018-08-24T10:49:24.130Z,5.58
2018-08-24T10:51:52.172Z,6.58
2018-08-24T10:54:20.347Z,7.62
2018-08-24T10:56:55.012Z,5.00
2018-08-24T10:59:23.128Z,4.67
2018-08-24T11:01:51.212Z,5.35
2018-08-24T11:04:19.276Z,5.60
2018-08-24T11:06:47.435Z,5.20
2018-08-24T11:09:15.509Z,6.95
2018-08-24T11:11:43.610Z,6.37
2018-08-24T11:14:11.659Z,8.28
2018-08-24T11:16:39.768Z,8.25
2018-08-24T11:19:07.854Z,7.85
2018-08-24T11:21:35.981Z,6.15
2018-08-24T11:24:04.059Z,9.08
2018-08-24T11:26:32.190Z,11.08
2018-08-24T11:29:00.280Z,6.47
2018-08-24T11:31:28.841Z,4.42
2018-08-24T11:33:57.146Z,6.30
2018-08-24T11:36:25.269Z,9.25
2018-08-24T11:38:53.297Z,6.05
2018-08-24T11:41:21.444Z,4.65
2018-08-24T11:43:49.555Z,7.47
2018-08-24T11:46:17.662Z,7.60
2018-08-24T11:48:45.809Z,9.55
2018-08-24T11:51:13.948Z,9.28
2018-08-24T11:53:42.166Z,6.47
2018-08-24T11:56:10.355Z,7.75
2018-08-24T11:58:38.425Z,5.87
2018-08-24T12:01:06.596Z,9.68
2018-08-24T12:03:34.722Z,8.53
2018-08-24T12:06:02.888Z,5.87
2018-08-24T12:08:30.987Z,5.55
2018-08-24T12:10:59.243Z,3.58
2018-08-24T12:13:28.078Z,9.03
2018-08-24T12:15:56.167Z,6.55
2018-08-24T12:18:24.326Z,6.10
2018-08-24T12:20:52.320Z,6.72
2018-08-24T12:23:20.466Z,8.00
2018-08-24T12:25:48.572Z,5.22
2018-08-24T12:28:16.652Z,4.85
2018-08-24T12:30:44.778Z,13.00
2018-08-24T12:33:12.893Z,9.90
2018-08-24T12:35:40.984Z,8.30
2018-08-24T12:38:09.211Z,6.28
2018-08-24T12:40:37.266Z,5.45
2018-08-24T12:43:05.364Z,7.12
2018-08-24T12:45:33.521Z,7.85
2018-08-24T12:48:01.631Z,6.45
2018-08-24T12:50:29.719Z,8.23
2018-08-24T12:52:57.838Z,7.17
2018-08-24T12:55:25.981Z,6.67
2018-08-24T12:57:54.199Z,5.80
2018-08-24T13:00:22.290Z,4.50
2018-08-24T13:02:50.915Z,5.35
2018-08-24T13:05:19.120Z,5.37
2018-08-24T13:07:47.200Z,7.58
2018-08-24T13:10:15.812Z,6.58
2018-08-24T13:12:43.946Z,7.40
2018-08-24T13:15:12.062Z,8.63
2018-08-24T13:17:40.129Z,5.05
2018-08-24T13:20:08.242Z,4.95
2018-08-24T13:22:36.419Z,5.00
2018-08-24T13:25:04.498Z,5.37
2018-08-24T13:27:32.601Z,7.85
2018-08-24T13:30:00.674Z,3.42
2018-08-24T13:32:28.809Z,3.45
2018-08-24T13:34:56.897Z,4.92
2018-08-24T13:37:24.972Z,4.10
2018-08-24T13:39:53.075Z,4.47
2018-08-24T13:42:21.227Z,5.67
2018-08-24T13:44:49.384Z,6.37
2018-08-24T13:47:17.474Z,4.55
2018-08-24T13:49:45.525Z,7.40
2018-08-24T13:52:13.614Z,8.83
2018-08-24T13:54:41.693Z,6.75
2018-08-24T13:57:09.891Z,6.35
2018-08-24T13:59:38.139Z,7.42
2018-08-24T14:02:06.115Z,7.40
2018-08-24T14:04:34.184Z,8.18
2018-08-24T14:07:02.360Z,7.53
2018-08-24T14:09:30.440Z,7.00
2018-08-24T14:11:58.507Z,9.15
2018-08-24T14:14:26.598Z,7.45
2018-08-24T14:16:54.714Z,3.92
2018-08-24T14:19:22.804Z,7.78
2018-08-24T14:21:50.933Z,4.25
2018-08-24T14:24:19.116Z,4.25
2018-08-24T14:26:47.259Z,6.97
2018-08-24T14:29:15.372Z,3.35
2018-08-24T14:31:43.497Z,3.37
2018-08-24T14:34:18.227Z,6.33
2018-08-24T14:36:52.851Z,6.10
2018-08-24T14:39:20.974Z,4.80
2018-08-24T14:41:49.078Z,2.83
2018-08-24T14:44:17.158Z,6.20
2018-08-24T14:46:45.236Z,2.92
2018-08-24T14:49:13.348Z,7.55
2018-08-24T14:51:41.426Z,5.55
2018-08-24T14:54:09.536Z,4.28
2018-08-24T14:56:37.611Z,4.08
2018-08-24T14:59:05.876Z,2.90
2018-08-24T15:01:34.035Z,5.42
2018-08-24T15:04:02.137Z,6.00
2018-08-24T15:06:30.237Z,4.05
2018-08-24T15:08:58.381Z,4.78
2018-08-24T15:11:26.516Z,6.90
2018-08-24T15:13:54.872Z,4.92
2018-08-24T15:16:23.004Z,3.15
2018-08-24T15:18:51.096Z,6.12
2018-08-24T15:21:19.179Z,4.83
2018-08-24T15:23:47.269Z,5.67
2018-08-24T15:26:15.426Z,4.87
2018-08-24T15:28:43.501Z,4.15
2018-08-24T15:31:11.856Z,7.78
2018-08-24T15:33:39.935Z,5.22
2018-08-24T15:36:09.610Z,4.65
2018-08-24T15:38:37.669Z,6.08
2018-08-24T15:41:05.778Z,7.08
2018-08-24T15:43:33.836Z,4.78
2018-08-24T15:46:01.965Z,4.78
2018-08-24T15:48:30.072Z,4.12
2018-08-24T15:50:58.132Z,5.87
2018-08-24T15:53:26.674Z,6.20
2018-08-24T15:55:54.864Z,4.95
2018-08-24T15:58:23.093Z,4.58
2018-08-24T16:00:52.095Z,5.20
2018-08-24T16:03:20.175Z,5.75
2018-08-24T16:05:48.311Z,3.85
2018-08-24T16:08:16.457Z,3.90
2018-08-24T16:10:44.541Z,3.50
2018-08-24T16:13:12.625Z,7.75
2018-08-24T16:15:40.696Z,5.87
2018-08-24T16:18:14.187Z,4.28
2018-08-24T16:20:42.289Z,3.72
2018-08-24T16:23:10.475Z,4.78
2018-08-24T16:25:39.618Z,3.60
2018-08-24T16:28:07.677Z,5.83
2018-08-24T16:30:35.799Z,4.12
2018-08-24T16:33:04.693Z,5.58
2018-08-24T16:35:32.777Z,5.28
2018-08-24T16:38:00.859Z,5.08
2018-08-24T16:40:28.928Z,4.15
2018-08-24T16:42:57.056Z,3.42
2018-08-24T16:45:25.117Z,6.08
2018-08-24T16:47:53.236Z,3.52
2018-08-24T16:50:21.291Z,4.00
2018-08-24T16:52:49.364Z,4.45
2018-08-24T16:55:17.415Z,4.40
2018-08-24T16:57:45.627Z,5.53
2018-08-24T17:00:13.689Z,8.10
2018-08-24T17:02:41.770Z,5.05
2018-08-24T17:05:09.858Z,5.35
2018-08-24T17:07:37.919Z,4.25
2018-08-24T17:10:06.780Z,3.77
2018-08-24T17:12:35.000Z,5.05
2018-08-24T17:15:03.039Z,5.15
2018-08-24T17:20:10.507Z,6.25
2018-08-24T17:22:38.674Z,3.45
2018-08-24T17:25:06.734Z,4.53
2018-08-24T17:27:34.883Z,5.03
2018-08-24T17:30:02.997Z,5.03
2018-08-24T17:32:31.138Z,2.98
2018-08-24T17:34:59.313Z,3.25
2018-08-24T17:37:27.452Z,4.05
2018-08-24T17:39:55.580Z,7.40
2018-08-24T17:42:23.694Z,5.35
2018-08-24T17:44:51.779Z,3.60
2018-08-24T17:47:19.836Z,5.00
2018-08-24T17:49:47.902Z,7.78
2018-08-24T17:52:16.076Z,4.40
2018-08-24T17:54:44.150Z,4.53
2018-08-24T17:57:12.234Z,5.97
2018-08-24T17:59:40.422Z,3.30
2018-08-24T18:02:08.503Z,2.95
2018-08-24T18:04:36.619Z,3.70
2018-08-24T18:07:04.806Z,5.22
2018-08-24T18:09:32.855Z,4.47
2018-08-24T18:12:00.938Z,5.00
2018-08-24T18:14:29.424Z,3.42
2018-08-24T18:16:57.534Z,3.98
2018-08-24T18:19:25.626Z,4.53
2018-08-24T18:21:53.692Z,3.62
2018-08-24T18:24:21.904Z,5.62
2018-08-24T18:26:49.991Z,5.35
2018-08-24T18:29:18.055Z,4.87
2018-08-24T18:31:46.135Z,5.92
2018-08-24T18:34:14.248Z,4.50
2018-08-24T18:36:42.454Z,4.22
2018-08-24T18:39:11.899Z,5.50
2018-08-24T18:41:40.145Z,4.03
2018-08-24T18:44:08.613Z,5.67
2018-08-24T18:46:36.679Z,5.95
2018-08-24T18:49:05.079Z,4.50
2018-08-24T18:51:33.262Z,2.65
2018-08-24T18:54:01.380Z,5.70
2018-08-24T18:56:29.456Z,6.42
2018-08-24T18:58:57.630Z,5.42
2018-08-24T19:01:25.747Z,3.47
2018-08-24T19:03:53.838Z,4.15
2018-08-24T19:06:21.974Z,4.58
2018-08-24T19:08:50.097Z,6.83
2018-08-24T19:11:23.764Z,3.17
2018-08-24T19:13:52.204Z,4.42
2018-08-24T19:16:20.239Z,4.70
2018-08-24T19:18:53.630Z,6.80
2018-08-24T19:21:27.147Z,3.70
2018-08-24T19:23:55.215Z,5.03
2018-08-24T19:26:23.436Z,5.80
2018-08-24T19:28:57.050Z,7.62
2018-08-24T19:31:25.167Z,5.20
2018-08-24T19:33:53.403Z,6.55
2018-08-24T19:36:21.524Z,2.58
2018-08-24T19:38:49.673Z,5.87
2018-08-24T19:41:23.320Z,3.92
2018-08-24T19:43:51.463Z,5.97
2018-08-24T19:46:19.665Z,3.85
2018-08-24T19:48:53.289Z,6.72
2018-08-24T19:51:21.368Z,5.00
2018-08-24T19:53:49.496Z,6.25
2018-08-24T19:56:17.553Z,4.55
2018-08-24T19:58:51.041Z,5.20
2018-08-24T20:01:19.176Z,4.55
2018-08-24T20:03:47.263Z,3.80
2018-08-24T20:06:21.318Z,3.30
2018-08-24T20:08:54.627Z,2.98
2018-08-24T20:11:22.851Z,4.83
2018-08-24T20:13:50.941Z,4.95
2018-08-24T20:16:24.431Z,5.17
2018-08-24T20:18:52.921Z,3.65
2018-08-24T20:21:21.078Z,3.97
2018-08-24T20:23:49.280Z,3.70
2018-08-24T20:26:17.696Z,6.17
2018-08-24T20:28:46.114Z,4.53
2018-08-24T20:31:14.327Z,2.23
2018-08-24T20:33:42.468Z,4.83
2018-08-24T20:36:10.530Z,8.90
2018-08-24T20:38:38.565Z,3.63
2018-08-24T20:41:06.736Z,4.53
2018-08-24T20:43:34.836Z,3.65
2018-08-24T20:46:02.910Z,3.80
2018-08-24T20:48:31.009Z,4.47
2018-08-24T20:50:59.078Z,4.63
2018-08-24T20:53:27.119Z,4.10
2018-08-24T20:55:55.253Z,3.83
2018-08-24T20:58:23.315Z,3.80
2018-08-24T21:00:51.487Z,8.60
2018-08-24T21:03:19.576Z,8.30
2018-08-24T21:05:47.787Z,4.23
2018-08-24T21:08:15.899Z,2.87
2018-08-24T21:10:44.020Z,5.70
2018-08-24T21:13:12.099Z,3.67
2018-08-24T21:15:40.173Z,4.30
2018-08-24T21:18:08.239Z,3.00
2018-08-24T21:20:36.359Z,5.93
2018-08-24T21:23:04.668Z,6.13
2018-08-24T21:25:32.756Z,3.87
2018-08-24T21:28:00.811Z,4.60
2018-08-24T21:30:28.871Z,3.37
2018-08-24T21:32:56.942Z,4.97
2018-08-24T21:35:25.047Z,3.90
2018-08-24T21:37:53.185Z,3.60
2018-08-24T21:40:21.320Z,7.20
2018-08-24T21:42:49.408Z,4.53
2018-08-24T21:45:17.510Z,6.50
2018-08-24T21:47:45.751Z,4.17
2018-08-24T21:50:13.935Z,3.90
2018-08-24T21:52:41.992Z,3.53
2018-08-24T21:55:10.157Z,4.13
2018-08-24T21:57:38.801Z,4.30
2018-08-24T22:00:10.570Z,7.10
2018-08-24T22:02:38.714Z,7.00
2018-08-24T22:05:06.833Z,6.20
2018-08-24T22:07:34.917Z,4.73
2018-08-24T22:10:02.987Z,4.70
2018-08-24T22:12:31.107Z,6.80
2018-08-24T22:14:59.201Z,6.47
2018-08-24T22:17:27.307Z,5.33
2018-08-24T22:19:55.603Z,4.13
2018-08-24T22:22:23.679Z,2.87
2018-08-24T22:24:51.776Z,5.40
2018-08-24T22:27:19.937Z,5.53
2018-08-24T22:29:48.036Z,4.90
2018-08-24T22:32:16.166Z,2.77
2018-08-24T22:34:44.287Z,4.27
2018-08-24T22:37:12.491Z,6.07
2018-08-24T22:39:40.564Z,3.93
2018-08-24T22:42:08.664Z,5.20
2018-08-24T22:44:36.748Z,4.80
2018-08-24T22:47:05.111Z,7.37
2018-08-24T22:49:33.262Z,5.10
2018-08-24T22:52:01.342Z,6.57
2018-08-24T22:54:29.412Z,5.00
2018-08-24T22:56:57.584Z,5.30
2018-08-24T22:59:25.709Z,3.10
2018-08-24T23:01:53.794Z,4.87
2018-08-24T23:04:21.869Z,5.57
2018-08-24T23:06:49.985Z,5.47
2018-08-24T23:09:18.096Z,3.93
2018-08-24T23:11:46.190Z,3.90
2018-08-24T23:14:14.323Z,5.83
2018-08-24T23:16:42.437Z,6.10
2018-08-24T23:19:10.507Z,6.47
2018-08-24T23:21:38.593Z,7.37
2018-08-24T23:24:06.676Z,6.77
2018-08-24T23:26:34.797Z,4.77
2018-08-24T23:29:03.052Z,5.57
2018-08-24T23:31:31.391Z,5.97
2018-08-24T23:33:59.512Z,7.97
2018-08-24T23:36:27.560Z,5.97
2018-08-24T23:38:55.701Z,5.00
2018-08-24T23:41:23.781Z,5.63
2018-08-24T23:43:51.861Z,5.33
2018-08-24T23:46:19.959Z,5.87
2018-08-24T23:48:48.013Z,6.90
2018-08-24T23:51:16.114Z,4.03
2018-08-24T23:53:44.236Z,5.37
2018-08-24T23:56:12.361Z,4.70
2018-08-24T23:58:40.462Z,5.33
